Plaia De Rueta — EAAA — position and weather

sailwx.info

Track history (hours):
 
Tides and Currents Weather Stations Pressure Air Temp Water Temp Dewpoint Dewpoint Depression Visibility Wind Speed Wind Dir Waves Ship Positions

Plaia De Rueta

Last reported at 2018-Jan-19 17:25 UTC. Time now 2018-Jan-21 10:33 UTC.
Position N 43°33' W 005°42'.

Length 32 m; draft 6 m.

Type: Fishing. MMSI: 224100180.

Date/timePositionNaut miles runAvg speedWind from/ knotsBaromVisibWave heightAir tempDewpointWater temp
2018-Jan-19 17:25N 43°33' W 005°42'3 7.2
2018-Jan-19 17:00N 43°36' W 005°39'6 9.6
2018-Jan-19 16:24N 43°40' W 005°34'4 9.6
2018-Jan-19 15:59N 43°42' W 005°29'5 9.5
2018-Jan-19 15:30N 43°45' W 005°24'  
2018-Jan-12 05:52N 43°48' W 006°03'4 2.8
2018-Jan-12 04:25N 43°45' W 006°04'4 2.7
2018-Jan-12 02:55N 43°42' W 006°08'1 3.1
2018-Jan-12 02:30N 43°42' W 006°07'4 2.9
2018-Jan-12 01:08N 43°41' W 006°01'1 1.9
2018-Jan-12 00:47N 43°41' W 006°00'3 0.5
2018-Jan-11 18:41N 43°41' W 006°05'1 2.6
2018-Jan-11 18:26N 43°41' W 006°04'1 2.6
2018-Jan-11 17:59N 43°41' W 006°02'1 2.7
2018-Jan-11 17:31N 43°41' W 006°00'2 2.9
2018-Jan-11 16:56N 43°41' W 005°58'4 5.6
2018-Jan-11 16:12N 43°42' W 005°53'2 6.2
2018-Jan-11 15:56N 43°42' W 005°50'3 6.6
2018-Jan-11 15:30N 43°41' W 005°47'4 7.9
2018-Jan-11 14:59N 43°38' W 005°43'4 8.2
2018-Jan-11 14:30N 43°34' W 005°40'1 2.5
2018-Jan-11 13:58N 43°33' W 005°42'0 0.0
2018-Jan-11 13:30N 43°33' W 005°42'0 0.0
2018-Jan-11 13:00N 43°33' W 005°42'0 0.0
2018-Jan-11 12:30N 43°33' W 005°42'0 0.0
2018-Jan-11 12:00N 43°33' W 005°42'0 0.0
2018-Jan-11 11:30N 43°33' W 005°42'0 0.0
2018-Jan-11 11:00N 43°33' W 005°42'0 0.0
2018-Jan-11 10:30N 43°33' W 005°42'0 0.0
2018-Jan-11 10:00N 43°33' W 005°42'0 0.0
2018-Jan-11 09:30N 43°33' W 005°42'0 0.0
2018-Jan-11 09:00N 43°33' W 005°42'0 0.0
2018-Jan-11 08:30N 43°33' W 005°42'0 0.0
2018-Jan-11 08:00N 43°33' W 005°42'0 0.0
2018-Jan-11 07:30N 43°33' W 005°42'0 0.0
2018-Jan-11 07:00N 43°33' W 005°42'0 0.0
2018-Jan-11 06:30N 43°33' W 005°42'0 0.0
2018-Jan-11 06:00N 43°33' W 005°42'0 0.0
2018-Jan-11 05:30N 43°33' W 005°42'0 0.0
2018-Jan-11 05:00N 43°33' W 005°42'0 0.0
2018-Jan-11 04:30N 43°33' W 005°42'0 0.0
2018-Jan-11 04:00N 43°33' W 005°42'0 0.0
2018-Jan-11 03:30N 43°33' W 005°42'0 0.0
2018-Jan-11 03:00N 43°33' W 005°42'0 0.0
2018-Jan-11 02:30N 43°33' W 005°42'0 0.0
2018-Jan-11 02:00N 43°33' W 005°42'0 0.0
2018-Jan-11 01:30N 43°33' W 005°42'0 0.0
2018-Jan-11 01:00N 43°33' W 005°42'0 0.0
2018-Jan-11 00:29N 43°33' W 005°42'0 0.0
2018-Jan-11 00:00N 43°33' W 005°42'0 0.0
2018-Jan-10 23:30N 43°33' W 005°42'0 0.0
2018-Jan-10 22:51N 43°33' W 005°42'0 0.0
2018-Jan-10 22:30N 43°33' W 005°42'0 0.0
2018-Jan-10 22:00N 43°33' W 005°42'0 0.0
2018-Jan-10 21:30N 43°33' W 005°42'0 0.0
2018-Jan-10 20:59N 43°33' W 005°42'0 0.0
2018-Jan-10 20:29N 43°33' W 005°42'0 0.0
2018-Jan-10 20:00N 43°33' W 005°42'0 0.0
2018-Jan-10 19:30N 43°33' W 005°42'0 0.0
2018-Jan-10 19:00N 43°33' W 005°42'0 0.0
2018-Jan-10 18:31N 43°33' W 005°42'0 0.0
2018-Jan-10 18:00N 43°33' W 005°42'0 0.0
2018-Jan-10 17:30N 43°33' W 005°42'0 0.0
2018-Jan-10 17:01N 43°33' W 005°42'4 8.5
2018-Jan-10 16:29N 43°35' W 005°36'12 3.3
2018-Jan-10 12:55N 43°41' W 005°22'2 3.0
2018-Jan-10 12:20N 43°39' W 005°21'7 4.3
2018-Jan-10 10:47N 43°36' W 005°13'0 0.5
2018-Jan-10 10:30N 43°36' W 005°13'2 0.8
2018-Jan-10 07:53N 43°34' W 005°12'2 3.6
2018-Jan-10 07:21N 43°36' W 005°13'4 8.1
2018-Jan-10 06:55N 43°39' W 005°15'5 2.8
2018-Jan-10 04:58N 43°41' W 005°22'3 2.7
2018-Jan-10 03:55N 43°38' W 005°20'1 2.9
2018-Jan-10 03:25N 43°38' W 005°19'4 1.4
2018-Jan-10 00:28N 43°41' W 005°22'5 1.4
2018-Jan-09 21:05N 43°45' W 005°26'2 3.0
2018-Jan-09 20:32N 43°45' W 005°28'0 3.3
2018-Jan-09 20:24N 43°46' W 005°29'5 3.3
2018-Jan-09 18:54N 43°47' W 005°36'  
Track history (hours):
 
Tides and Currents Weather Stations Pressure Air Temp Water Temp Dewpoint Dewpoint Depression Visibility Wind Speed Wind Dir Waves Ship Positions

Plaia De Rueta

Last reported at 2018-Jan-19 17:25 UTC. Time now 2018-Jan-21 10:33 UTC.
Position N 43°33' W 005°42'.

Length 32 m; draft 6 m.

Type: Fishing. MMSI: 224100180.

Date/timePositionNaut miles runAvg speedWind from/ knotsBaromVisibWave heightAir tempDewpointWater temp
2018-Jan-19 17:25N 43°33' W 005°42'3 7.2
2018-Jan-19 17:00N 43°36' W 005°39'6 9.6
2018-Jan-19 16:24N 43°40' W 005°34'4 9.6
2018-Jan-19 15:59N 43°42' W 005°29'5 9.5
2018-Jan-19 15:30N 43°45' W 005°24'  
2018-Jan-12 05:52N 43°48' W 006°03'4 2.8
2018-Jan-12 04:25N 43°45' W 006°04'4 2.7
2018-Jan-12 02:55N 43°42' W 006°08'1 3.1
2018-Jan-12 02:30N 43°42' W 006°07'4 2.9
2018-Jan-12 01:08N 43°41' W 006°01'1 1.9
2018-Jan-12 00:47N 43°41' W 006°00'3 0.5
2018-Jan-11 18:41N 43°41' W 006°05'1 2.6
2018-Jan-11 18:26N 43°41' W 006°04'1 2.6
2018-Jan-11 17:59N 43°41' W 006°02'1 2.7
2018-Jan-11 17:31N 43°41' W 006°00'2 2.9
2018-Jan-11 16:56N 43°41' W 005°58'4 5.6
2018-Jan-11 16:12N 43°42' W 005°53'2 6.2
2018-Jan-11 15:56N 43°42' W 005°50'3 6.6
2018-Jan-11 15:30N 43°41' W 005°47'4 7.9
2018-Jan-11 14:59N 43°38' W 005°43'4 8.2
2018-Jan-11 14:30N 43°34' W 005°40'1 2.5
2018-Jan-11 13:58N 43°33' W 005°42'0 0.0
2018-Jan-11 13:30N 43°33' W 005°42'0 0.0
2018-Jan-11 13:00N 43°33' W 005°42'0 0.0
2018-Jan-11 12:30N 43°33' W 005°42'0 0.0
2018-Jan-11 12:00N 43°33' W 005°42'0 0.0
2018-Jan-11 11:30N 43°33' W 005°42'0 0.0
2018-Jan-11 11:00N 43°33' W 005°42'0 0.0
2018-Jan-11 10:30N 43°33' W 005°42'0 0.0
2018-Jan-11 10:00N 43°33' W 005°42'0 0.0
2018-Jan-11 09:30N 43°33' W 005°42'0 0.0
2018-Jan-11 09:00N 43°33' W 005°42'0 0.0
2018-Jan-11 08:30N 43°33' W 005°42'0 0.0
2018-Jan-11 08:00N 43°33' W 005°42'0 0.0
2018-Jan-11 07:30N 43°33' W 005°42'0 0.0
2018-Jan-11 07:00N 43°33' W 005°42'0 0.0
2018-Jan-11 06:30N 43°33' W 005°42'0 0.0
2018-Jan-11 06:00N 43°33' W 005°42'0 0.0
2018-Jan-11 05:30N 43°33' W 005°42'0 0.0
2018-Jan-11 05:00N 43°33' W 005°42'0 0.0
2018-Jan-11 04:30N 43°33' W 005°42'0 0.0
2018-Jan-11 04:00N 43°33' W 005°42'0 0.0
2018-Jan-11 03:30N 43°33' W 005°42'0 0.0
2018-Jan-11 03:00N 43°33' W 005°42'0 0.0
2018-Jan-11 02:30N 43°33' W 005°42'0 0.0
2018-Jan-11 02:00N 43°33' W 005°42'0 0.0
2018-Jan-11 01:30N 43°33' W 005°42'0 0.0
2018-Jan-11 01:00N 43°33' W 005°42'0 0.0
2018-Jan-11 00:29N 43°33' W 005°42'0 0.0
2018-Jan-11 00:00N 43°33' W 005°42'0 0.0
2018-Jan-10 23:30N 43°33' W 005°42'0 0.0
2018-Jan-10 22:51N 43°33' W 005°42'0 0.0
2018-Jan-10 22:30N 43°33' W 005°42'0 0.0
2018-Jan-10 22:00N 43°33' W 005°42'0 0.0
2018-Jan-10 21:30N 43°33' W 005°42'0 0.0
2018-Jan-10 20:59N 43°33' W 005°42'0 0.0
2018-Jan-10 20:29N 43°33' W 005°42'0 0.0
2018-Jan-10 20:00N 43°33' W 005°42'0 0.0
2018-Jan-10 19:30N 43°33' W 005°42'0 0.0
2018-Jan-10 19:00N 43°33' W 005°42'0 0.0
2018-Jan-10 18:31N 43°33' W 005°42'0 0.0
2018-Jan-10 18:00N 43°33' W 005°42'0 0.0
2018-Jan-10 17:30N 43°33' W 005°42'0 0.0
2018-Jan-10 17:01N 43°33' W 005°42'4 8.5
2018-Jan-10 16:29N 43°35' W 005°36'12 3.3
2018-Jan-10 12:55N 43°41' W 005°22'2 3.0
2018-Jan-10 12:20N 43°39' W 005°21'7 4.3
2018-Jan-10 10:47N 43°36' W 005°13'0 0.5
2018-Jan-10 10:30N 43°36' W 005°13'2 0.8
2018-Jan-10 07:53N 43°34' W 005°12'2 3.6
2018-Jan-10 07:21N 43°36' W 005°13'4 8.1
2018-Jan-10 06:55N 43°39' W 005°15'5 2.8
2018-Jan-10 04:58N 43°41' W 005°22'3 2.7
2018-Jan-10 03:55N 43°38' W 005°20'1 2.9
2018-Jan-10 03:25N 43°38' W 005°19'4 1.4
2018-Jan-10 00:28N 43°41' W 005°22'5 1.4
2018-Jan-09 21:05N 43°45' W 005°26'2 3.0
2018-Jan-09 20:32N 43°45' W 005°28'0 3.3
2018-Jan-09 20:24N 43°46' W 005°29'5 3.3
2018-Jan-09 18:54N 43°47' W 005°36'  

Dump ship's entire track history